createdAt,value
2018-07-05T00:00:46.891Z,16.90
2018-07-05T00:03:33.552Z,16.80
2018-07-05T00:06:20.236Z,16.70
2018-07-05T00:09:06.822Z,16.60
2018-07-05T00:11:53.664Z,16.50
2018-07-05T00:14:40.190Z,16.40
2018-07-05T00:17:26.665Z,16.30
2018-07-05T00:20:13.357Z,16.30
2018-07-05T00:22:59.697Z,16.20
2018-07-05T00:25:46.222Z,16.30
2018-07-05T00:28:32.712Z,16.20
2018-07-05T00:31:19.176Z,16.10
2018-07-05T00:34:05.748Z,16.00
2018-07-05T00:36:52.262Z,16.10
2018-07-05T00:39:39.009Z,16.10
2018-07-05T00:42:25.420Z,16.20
2018-07-05T00:45:12.453Z,16.10
2018-07-05T00:47:58.990Z,16.10
2018-07-05T00:50:45.585Z,16.00
2018-07-05T00:53:32.561Z,15.90
2018-07-05T00:56:19.309Z,15.80
2018-07-05T00:59:05.728Z,15.80
2018-07-05T01:01:52.241Z,15.80
2018-07-05T01:04:38.880Z,16.00
2018-07-05T01:07:25.229Z,16.10
2018-07-05T01:10:12.102Z,16.00
2018-07-05T01:15:39.068Z,15.80
2018-07-05T01:18:26.558Z,15.70
2018-07-05T01:21:13.109Z,15.70
2018-07-05T01:23:59.441Z,15.70
2018-07-05T01:26:46.366Z,15.60
2018-07-05T01:29:32.801Z,15.50
2018-07-05T01:32:19.377Z,15.60
2018-07-05T01:35:05.780Z,15.70
2018-07-05T01:37:52.409Z,15.70
2018-07-05T01:40:39.096Z,15.50
2018-07-05T01:43:25.583Z,15.40
2018-07-05T01:46:12.393Z,15.30
2018-07-05T01:48:58.887Z,15.30
2018-07-05T01:51:45.404Z,15.30
2018-07-05T01:54:32.084Z,15.30
2018-07-05T01:57:18.594Z,15.30
2018-07-05T02:00:05.168Z,15.30
2018-07-05T02:02:52.399Z,15.20
2018-07-05T02:05:38.992Z,15.10
2018-07-05T02:08:25.360Z,15.10
2018-07-05T02:11:11.905Z,15.00
2018-07-05T02:13:58.484Z,15.00
2018-07-05T02:16:45.597Z,15.00
2018-07-05T02:19:32.215Z,15.00
2018-07-05T02:22:18.908Z,15.00
2018-07-05T02:25:05.475Z,15.00
2018-07-05T02:27:52.136Z,14.90
2018-07-05T02:30:38.889Z,15.10
2018-07-05T02:33:25.436Z,15.10
2018-07-05T02:36:11.849Z,15.10
2018-07-05T02:39:03.812Z,15.10
2018-07-05T02:41:50.641Z,15.00
2018-07-05T02:44:37.177Z,15.00
2018-07-05T02:47:23.640Z,14.90
2018-07-05T02:50:10.133Z,14.90
2018-07-05T02:52:56.888Z,15.00
2018-07-05T02:55:43.296Z,15.00
2018-07-05T02:58:29.877Z,15.00
2018-07-05T03:01:16.252Z,14.90
2018-07-05T03:04:02.997Z,14.80
2018-07-05T03:06:49.417Z,14.80
2018-07-05T03:09:36.029Z,14.80
2018-07-05T03:12:22.437Z,14.90
2018-07-05T03:15:08.941Z,14.90
2018-07-05T03:17:55.592Z,14.80
2018-07-05T03:20:42.132Z,14.90
2018-07-05T03:23:28.528Z,14.90
2018-07-05T03:26:15.148Z,14.90
2018-07-05T03:29:01.750Z,15.00
2018-07-05T03:31:48.326Z,15.20
2018-07-05T03:34:34.772Z,15.30
2018-07-05T03:37:21.161Z,15.30
2018-07-05T03:40:08.020Z,15.30
2018-07-05T03:42:54.620Z,15.30
2018-07-05T03:45:41.378Z,15.30
2018-07-05T03:48:27.737Z,15.30
2018-07-05T03:51:14.200Z,15.50
2018-07-05T03:54:00.792Z,16.00
2018-07-05T03:56:47.393Z,16.60
2018-07-05T03:59:35.180Z,17.20
2018-07-05T04:02:21.705Z,17.90
2018-07-05T04:05:08.360Z,18.50
2018-07-05T04:07:54.844Z,18.70
2018-07-05T04:10:41.482Z,18.50
2018-07-05T04:13:27.964Z,18.50
2018-07-05T04:16:14.484Z,18.50
2018-07-05T04:19:01.164Z,18.30
2018-07-05T04:21:47.479Z,18.10
2018-07-05T04:24:33.933Z,18.30
2018-07-05T04:27:20.494Z,18.40
2018-07-05T04:30:06.873Z,18.60
2018-07-05T04:32:53.400Z,18.70
2018-07-05T04:35:39.932Z,19.00
2018-07-05T04:38:26.564Z,19.10
2018-07-05T04:41:13.008Z,19.30
2018-07-05T04:43:59.605Z,19.50
2018-07-05T04:46:46.572Z,19.50
2018-07-05T04:52:13.502Z,19.40
2018-07-05T04:55:00.014Z,19.50
2018-07-05T04:57:46.568Z,19.50
2018-07-05T05:00:33.296Z,19.70
2018-07-05T05:03:19.899Z,19.70
2018-07-05T05:06:06.576Z,19.90
2018-07-05T05:08:52.992Z,20.10
2018-07-05T05:11:39.669Z,20.20
2018-07-05T05:14:26.172Z,20.40
2018-07-05T05:17:12.724Z,20.70
2018-07-05T05:19:59.374Z,20.90
2018-07-05T05:25:26.400Z,21.40
2018-07-05T05:28:12.933Z,21.40
2018-07-05T05:30:59.745Z,21.40
2018-07-05T05:33:46.168Z,21.40
2018-07-05T05:36:32.844Z,21.50
2018-07-05T05:39:19.724Z,21.70
2018-07-05T05:44:46.677Z,21.60
2018-07-05T05:47:33.165Z,21.80
2018-07-05T05:50:20.108Z,22.00
2018-07-05T05:53:06.497Z,22.20
2018-07-05T05:55:53.172Z,22.30
2018-07-05T05:58:39.480Z,22.50
2018-07-05T06:01:25.929Z,22.50
2018-07-05T06:04:12.345Z,22.60
2018-07-05T06:06:58.940Z,22.40
2018-07-05T06:09:45.580Z,22.80
2018-07-05T06:12:32.077Z,23.20
2018-07-05T06:15:18.700Z,23.20
2018-07-05T06:18:05.018Z,23.20
2018-07-05T06:20:51.525Z,23.50
2018-07-05T06:23:38.196Z,23.90
2018-07-05T06:26:24.704Z,23.80
2018-07-05T06:29:11.265Z,23.80
2018-07-05T06:31:57.809Z,23.70
2018-07-05T06:34:44.365Z,23.60
2018-07-05T06:37:30.969Z,23.90
2018-07-05T06:40:17.556Z,24.10
2018-07-05T06:43:04.076Z,24.20
2018-07-05T06:45:50.828Z,24.20
2018-07-05T06:48:37.396Z,24.50
2018-07-05T06:51:23.772Z,24.50
2018-07-05T06:54:10.173Z,24.90
2018-07-05T06:56:57.075Z,25.20
2018-07-05T06:59:43.690Z,25.30
2018-07-05T07:02:30.125Z,25.50
2018-07-05T07:05:16.756Z,25.50
2018-07-05T07:08:03.262Z,25.80
2018-07-05T07:10:49.737Z,26.10
2018-07-05T07:13:36.361Z,26.30
2018-07-05T07:16:22.880Z,26.50
2018-07-05T07:19:09.738Z,26.20
2018-07-05T07:21:56.196Z,26.30
2018-07-05T07:24:42.908Z,26.30
2018-07-05T07:27:29.232Z,26.50
2018-07-05T07:30:16.013Z,26.20
2018-07-05T07:33:02.421Z,26.10
2018-07-05T07:35:49.365Z,26.00
2018-07-05T07:38:35.713Z,26.50
2018-07-05T07:41:22.460Z,26.60
2018-07-05T07:43:56.509Z,26.40
2018-07-05T07:46:24.349Z,26.70
2018-07-05T07:48:52.240Z,27.00
2018-07-05T07:51:20.103Z,27.10
2018-07-05T07:53:47.896Z,27.40
2018-07-05T07:56:15.672Z,27.20
2018-07-05T07:58:43.865Z,27.10
2018-07-05T08:01:11.632Z,27.00
2018-07-05T08:03:40.024Z,27.00
2018-07-05T08:06:07.838Z,27.10
2018-07-05T08:08:35.797Z,27.00
2018-07-05T08:11:03.577Z,27.20
2018-07-05T08:13:31.356Z,27.50
2018-07-05T08:15:59.361Z,27.80
2018-07-05T08:18:27.140Z,28.10
2018-07-05T08:20:54.921Z,28.30
2018-07-05T08:23:22.901Z,28.40
2018-07-05T08:25:50.681Z,28.80
2018-07-05T08:28:18.457Z,28.80
2018-07-05T08:30:46.273Z,28.40
2018-07-05T08:33:14.348Z,28.20
2018-07-05T08:35:42.133Z,28.60
2018-07-05T08:38:09.916Z,29.00
2018-07-05T08:40:37.724Z,29.10
2018-07-05T08:43:05.509Z,29.10
2018-07-05T08:45:33.315Z,29.10
2018-07-05T08:48:01.120Z,29.40
2018-07-05T08:50:28.933Z,29.80
2018-07-05T08:52:56.714Z,30.00
2018-07-05T08:55:24.492Z,30.10
2018-07-05T08:57:52.306Z,30.00
2018-07-05T09:00:20.117Z,30.30
2018-07-05T09:02:47.900Z,30.30
2018-07-05T09:05:15.741Z,29.90
2018-07-05T09:07:43.526Z,29.70
2018-07-05T09:10:11.337Z,29.70
2018-07-05T09:12:39.112Z,29.90
2018-07-05T09:15:06.936Z,29.90
2018-07-05T09:17:34.792Z,29.90
2018-07-05T09:20:02.903Z,29.70
2018-07-05T09:22:30.684Z,29.80
2018-07-05T09:24:58.473Z,30.10
2018-07-05T09:27:26.289Z,30.40
2018-07-05T09:29:54.072Z,30.40
2018-07-05T09:32:21.852Z,30.50
2018-07-05T09:34:49.663Z,30.50
2018-07-05T09:37:17.443Z,30.70
2018-07-05T09:39:45.289Z,30.20
2018-07-05T09:42:13.105Z,30.40
2018-07-05T09:44:41.028Z,30.80
2018-07-05T09:47:08.993Z,30.90
2018-07-05T09:49:36.777Z,30.90
2018-07-05T09:52:04.555Z,31.00
2018-07-05T09:54:32.364Z,31.10
2018-07-05T09:57:00.144Z,30.70
2018-07-05T09:59:27.956Z,30.10
2018-07-05T10:01:55.741Z,30.30
2018-07-05T10:04:23.519Z,30.60
2018-07-05T10:06:51.336Z,30.60
2018-07-05T10:09:19.152Z,30.50
2018-07-05T10:11:46.937Z,30.80
2018-07-05T10:14:14.756Z,31.30
2018-07-05T10:16:42.529Z,31.60
2018-07-05T10:19:10.306Z,31.80
2018-07-05T10:21:38.125Z,31.10
2018-07-05T10:24:05.901Z,30.70
2018-07-05T10:26:33.678Z,30.30
2018-07-05T10:29:14.135Z,30.00
2018-07-05T10:32:00.640Z,29.90
2018-07-05T10:34:34.637Z,29.80
2018-07-05T10:37:02.901Z,29.70
2018-07-05T10:39:30.690Z,30.10
2018-07-05T10:42:11.564Z,30.50
2018-07-05T10:44:58.120Z,31.10
2018-07-05T10:47:44.995Z,31.10
2018-07-05T10:50:31.825Z,30.80
2018-07-05T10:53:18.263Z,31.00
2018-07-05T10:56:05.033Z,30.50
2018-07-05T10:58:51.508Z,29.90
2018-07-05T11:01:38.113Z,29.40
2018-07-05T11:04:24.965Z,29.00
2018-07-05T11:07:11.553Z,29.10
2018-07-05T11:09:57.945Z,29.00
2018-07-05T11:12:44.537Z,29.20
2018-07-05T11:15:31.228Z,29.20
2018-07-05T11:18:17.808Z,29.20
2018-07-05T11:21:04.341Z,30.00
2018-07-05T11:23:51.133Z,30.80
2018-07-05T11:26:38.319Z,31.00
2018-07-05T11:29:24.792Z,31.10
2018-07-05T11:32:11.332Z,31.50
2018-07-05T11:34:57.771Z,31.30
2018-07-05T11:37:44.585Z,31.10
2018-07-05T11:40:31.009Z,30.90
2018-07-05T11:43:17.608Z,30.80
2018-07-05T11:46:04.403Z,30.90
2018-07-05T11:48:51.437Z,31.30
2018-07-05T11:51:37.885Z,31.50
2018-07-05T11:54:24.491Z,31.30
2018-07-05T11:57:10.846Z,31.60
2018-07-05T11:59:57.425Z,31.60
2018-07-05T12:02:44.101Z,31.70
2018-07-05T12:05:30.663Z,31.50
2018-07-05T12:08:17.000Z,31.80
2018-07-05T12:11:03.538Z,32.00
2018-07-05T12:13:50.074Z,32.40
2018-07-05T12:16:36.757Z,32.20
2018-07-05T12:19:23.409Z,32.40
2018-07-05T12:22:09.862Z,32.60
2018-07-05T12:24:56.248Z,32.60
2018-07-05T12:27:42.797Z,32.40
2018-07-05T12:30:29.289Z,32.90
2018-07-05T12:33:15.836Z,33.10
2018-07-05T12:36:02.575Z,33.10
2018-07-05T12:38:48.925Z,31.90
2018-07-05T12:41:35.353Z,31.60
2018-07-05T12:44:21.840Z,31.70
2018-07-05T12:47:08.489Z,31.80
2018-07-05T12:49:55.205Z,31.40
2018-07-05T12:52:41.669Z,31.30
2018-07-05T12:55:28.165Z,31.20
2018-07-05T13:00:54.892Z,31.10
2018-07-05T13:03:41.610Z,31.20
2018-07-05T13:06:28.053Z,31.30
2018-07-05T13:09:14.717Z,31.60
2018-07-05T13:12:01.693Z,32.00
2018-07-05T13:14:48.254Z,32.20
2018-07-05T13:17:35.090Z,32.40
2018-07-05T13:20:21.441Z,32.30
2018-07-05T13:23:08.089Z,32.60
2018-07-05T13:25:54.536Z,32.40
2018-07-05T13:28:41.121Z,32.10
2018-07-05T13:31:27.693Z,32.00
2018-07-05T13:34:14.313Z,31.30
2018-07-05T13:37:00.858Z,31.00
2018-07-05T13:39:47.431Z,30.80
2018-07-05T13:42:33.833Z,30.90
2018-07-05T13:45:20.583Z,31.20
2018-07-05T13:48:07.099Z,31.60
2018-07-05T13:50:53.568Z,31.90
2018-07-05T13:53:40.085Z,32.00
2018-07-05T13:56:26.737Z,32.60
2018-07-05T13:59:15.158Z,33.00
2018-07-05T14:02:01.609Z,32.70
2018-07-05T14:04:48.013Z,32.40
2018-07-05T14:07:34.357Z,32.40
2018-07-05T14:10:21.113Z,32.60
2018-07-05T14:13:07.779Z,32.40
2018-07-05T14:15:54.073Z,32.50
2018-07-05T14:18:40.633Z,32.30
2018-07-05T14:21:27.073Z,32.00
2018-07-05T14:24:13.845Z,31.60
2018-07-05T14:27:00.273Z,31.70
2018-07-05T14:29:47.085Z,31.90
2018-07-05T14:32:33.501Z,32.00
2018-07-05T14:35:20.110Z,32.50
2018-07-05T14:38:06.573Z,32.60
2018-07-05T14:40:53.206Z,33.10
2018-07-05T14:43:40.125Z,33.50
2018-07-05T14:46:26.909Z,32.50
2018-07-05T14:49:13.593Z,32.60
2018-07-05T14:52:00.114Z,32.60
2018-07-05T14:54:46.681Z,32.40
2018-07-05T14:57:33.286Z,32.20
2018-07-05T15:03:00.285Z,32.40
2018-07-05T15:05:46.963Z,32.60
2018-07-05T15:08:33.440Z,32.90
2018-07-05T15:11:20.589Z,33.50
2018-07-05T15:14:07.137Z,33.80
2018-07-05T15:16:53.512Z,34.30
2018-07-05T15:19:40.185Z,35.20
2018-07-05T15:22:26.597Z,36.80
2018-07-05T15:25:13.291Z,37.50
2018-07-05T15:28:00.031Z,36.70
2018-07-05T15:30:46.562Z,34.70
2018-07-05T15:33:33.040Z,33.20
2018-07-05T15:36:19.649Z,33.90
2018-07-05T15:39:06.517Z,34.40
2018-07-05T15:41:53.069Z,33.30
2018-07-05T15:44:39.617Z,33.50
2018-07-05T15:47:26.337Z,35.40
2018-07-05T15:50:12.992Z,36.60
2018-07-05T15:52:59.361Z,36.80
2018-07-05T15:55:45.968Z,36.90
2018-07-05T15:58:32.395Z,35.90
2018-07-05T16:01:18.837Z,35.60
2018-07-05T16:04:05.374Z,37.00
2018-07-05T16:06:51.913Z,37.60
2018-07-05T16:09:38.549Z,37.00
2018-07-05T16:12:25.239Z,37.00
2018-07-05T16:15:11.728Z,36.70
2018-07-05T16:17:58.289Z,36.50
2018-07-05T16:20:45.113Z,37.20
2018-07-05T16:23:31.821Z,38.20
2018-07-05T16:26:18.452Z,37.40
2018-07-05T16:29:04.836Z,37.50
2018-07-05T16:31:51.222Z,36.90
2018-07-05T16:34:37.789Z,37.00
2018-07-05T16:37:24.618Z,37.60
2018-07-05T16:40:11.423Z,37.00
2018-07-05T16:42:57.803Z,37.10
2018-07-05T16:45:44.281Z,38.30
2018-07-05T16:48:30.880Z,38.60
2018-07-05T16:51:17.673Z,38.50
2018-07-05T16:54:04.277Z,37.00
2018-07-05T16:56:51.037Z,34.90
2018-07-05T16:59:37.561Z,34.00
2018-07-05T17:02:24.173Z,33.40
2018-07-05T17:05:10.653Z,32.40
2018-07-05T17:07:57.136Z,31.70
2018-07-05T17:10:43.586Z,31.60
2018-07-05T17:16:10.640Z,30.70
2018-07-05T17:18:57.309Z,30.70
2018-07-05T17:21:44.038Z,30.40
2018-07-05T17:24:30.625Z,30.00
2018-07-05T17:27:17.109Z,30.10
2018-07-05T17:30:03.670Z,30.00
2018-07-05T17:35:31.017Z,29.80
2018-07-05T17:38:18.010Z,29.60
2018-07-05T17:41:05.109Z,29.70
2018-07-05T17:43:51.604Z,29.90
2018-07-05T17:46:38.398Z,30.00
2018-07-05T17:49:25.050Z,30.30
2018-07-05T17:52:11.878Z,30.60
2018-07-05T17:54:58.333Z,30.80
2018-07-05T17:57:44.667Z,30.90
2018-07-05T18:00:31.197Z,31.20
2018-07-05T18:03:17.605Z,32.30
2018-07-05T18:06:04.157Z,33.10
2018-07-05T18:08:50.740Z,32.60
2018-07-05T18:11:37.381Z,31.40
2018-07-05T18:14:23.953Z,30.70
2018-07-05T18:17:10.773Z,30.20
2018-07-05T18:19:57.333Z,29.70
2018-07-05T18:22:43.888Z,29.40
2018-07-05T18:25:30.401Z,28.90
2018-07-05T18:28:17.006Z,28.80
2018-07-05T18:31:03.461Z,28.80
2018-07-05T18:33:50.133Z,29.20
2018-07-05T18:36:36.573Z,29.30
2018-07-05T18:39:23.096Z,29.20
2018-07-05T18:42:09.638Z,29.00
2018-07-05T18:44:56.334Z,28.70
2018-07-05T18:47:42.725Z,28.30
2018-07-05T18:50:29.381Z,28.10
2018-07-05T18:53:16.014Z,28.00
2018-07-05T18:56:02.822Z,27.90
2018-07-05T18:58:49.474Z,27.70
2018-07-05T19:01:36.305Z,27.40
2018-07-05T19:04:22.662Z,27.30
2018-07-05T19:07:09.525Z,26.90
2018-07-05T19:09:55.909Z,26.70
2018-07-05T19:12:42.800Z,26.50
2018-07-05T19:15:29.541Z,26.20
2018-07-05T19:18:16.277Z,26.10
2018-07-05T19:21:02.909Z,26.00
2018-07-05T19:23:50.324Z,25.90
2018-07-05T19:26:37.100Z,25.60
2018-07-05T19:29:23.437Z,25.50
2018-07-05T19:32:10.222Z,25.30
2018-07-05T19:34:57.055Z,25.10
2018-07-05T19:37:43.645Z,24.90
2018-07-05T19:40:30.280Z,25.00
2018-07-05T19:43:16.747Z,24.70
2018-07-05T19:46:03.206Z,24.60
2018-07-05T19:48:49.605Z,24.60
2018-07-05T19:51:36.122Z,24.30
2018-07-05T19:54:22.600Z,24.30
2018-07-05T19:57:09.205Z,24.20
2018-07-05T19:59:55.673Z,24.00
2018-07-05T20:02:48.649Z,23.90
2018-07-05T20:05:35.429Z,23.70
2018-07-05T20:08:22.237Z,23.60
2018-07-05T20:11:09.061Z,23.50
2018-07-05T20:13:55.621Z,23.40
2018-07-05T20:16:42.184Z,23.30
2018-07-05T20:19:28.700Z,23.20
2018-07-05T20:22:18.374Z,23.10
2018-07-05T20:25:05.029Z,22.80
2018-07-05T20:27:51.681Z,22.90
2018-07-05T20:30:38.105Z,22.60
2018-07-05T20:33:24.693Z,22.50
2018-07-05T20:36:11.154Z,22.50
2018-07-05T20:38:57.693Z,22.40
2018-07-05T20:41:44.278Z,22.40
2018-07-05T20:44:30.609Z,22.20
2018-07-05T20:47:17.186Z,22.10
2018-07-05T20:52:44.141Z,22.10
2018-07-05T20:55:30.737Z,22.00
2018-07-05T20:58:17.273Z,21.80
2018-07-05T21:01:03.785Z,21.70
2018-07-05T21:03:50.010Z,21.60
2018-07-05T21:06:36.550Z,21.60
2018-07-05T21:09:22.934Z,21.70
2018-07-05T21:12:09.465Z,21.60
2018-07-05T21:14:55.864Z,21.70
2018-07-05T21:17:42.497Z,21.60
2018-07-05T21:20:29.196Z,21.50
2018-07-05T21:23:15.941Z,21.30
2018-07-05T21:26:02.792Z,21.40
2018-07-05T21:28:49.109Z,21.20
2018-07-05T21:31:35.670Z,21.10
2018-07-05T21:34:22.337Z,21.10
2018-07-05T21:37:08.861Z,21.10
2018-07-05T21:39:55.573Z,21.10
2018-07-05T21:42:42.065Z,21.10
2018-07-05T21:45:28.601Z,21.00
2018-07-05T21:48:15.101Z,20.80
2018-07-05T21:51:01.773Z,20.80
2018-07-05T21:53:48.341Z,20.80
2018-07-05T21:56:35.045Z,20.70
2018-07-05T21:59:21.609Z,20.70
2018-07-05T22:02:08.101Z,20.70
2018-07-05T22:04:54.817Z,20.60
2018-07-05T22:07:41.402Z,20.50
2018-07-05T22:10:27.749Z,20.50
2018-07-05T22:13:14.633Z,20.40
2018-07-05T22:16:01.092Z,20.30
2018-07-05T22:18:53.165Z,20.30
2018-07-05T22:21:45.412Z,20.30
2018-07-05T22:24:37.418Z,20.40
2018-07-05T22:27:29.945Z,20.30
2018-07-05T22:30:22.233Z,20.40
2018-07-05T22:33:08.965Z,20.20
2018-07-05T22:35:55.556Z,19.90
2018-07-05T22:38:41.973Z,19.80
2018-07-05T22:41:28.567Z,19.70
2018-07-05T22:44:15.137Z,19.70
2018-07-05T22:47:01.845Z,19.80
2018-07-05T22:49:48.409Z,19.80
2018-07-05T22:52:34.986Z,19.70
2018-07-05T22:55:21.541Z,19.70
2018-07-05T22:58:08.029Z,19.60
2018-07-05T23:00:54.585Z,19.50
2018-07-05T23:03:41.029Z,19.50
2018-07-05T23:06:27.513Z,19.40
2018-07-05T23:09:13.866Z,19.50
2018-07-05T23:12:00.273Z,19.40
2018-07-05T23:14:46.765Z,19.40
2018-07-05T23:17:33.125Z,19.30
2018-07-05T23:20:19.938Z,19.40
2018-07-05T23:23:06.390Z,19.30
2018-07-05T23:25:53.037Z,19.40
2018-07-05T23:28:39.517Z,19.30
2018-07-05T23:31:26.529Z,19.30
2018-07-05T23:34:13.048Z,19.20
2018-07-05T23:36:59.874Z,19.00
2018-07-05T23:39:46.422Z,18.80
2018-07-05T23:45:13.297Z,18.60
2018-07-05T23:47:59.825Z,18.40
2018-07-05T23:50:46.340Z,18.30
2018-07-05T23:56:13.214Z,18.10
2018-07-05T23:58:59.533Z,18.00
